Time;durP1;ratioP1;P1;durP2;ratioP2;P2;SDS_P1;SDS_P2;PMS_P1;PMS_P2;Temp;Humidity;BMP_temperature;BMP_pressure;BME280_temperature;BME280_humidity;BME280_pressure;Samples;Min_cycle;Max_cycle;Signal;HPM_P1;HPM_P2
2023/06/07 00:01:45;;;;;;;13.75;5.70;;;;;;;18.84;47.83;100270.72;5013208;28;20054;-77
2023/06/07 00:04:11;;;;;;;10.85;5.38;;;;;;;18.79;47.91;100272.09;5013146;28;20531;-77
2023/06/07 00:06:41;;;;;;;8.50;5.10;;;;;;;18.71;48.15;100264.72;5012934;28;20057;-78
2023/06/07 00:09:09;;;;;;;10.45;5.53;;;;;;;18.67;48.19;100277.50;5013001;28;20053;-77
2023/06/07 00:11:36;;;;;;;8.68;5.10;;;;;;;18.64;48.41;100276.91;5013312;28;20054;-77
2023/06/07 00:14:03;;;;;;;8.88;5.15;;;;;;;18.60;48.26;100277.16;5012043;28;20075;-77
2023/06/07 00:16:29;;;;;;;12.57;6.13;;;;;;;18.57;48.07;100277.41;5012923;28;20083;-77
2023/06/07 00:18:57;;;;;;;9.95;5.68;;;;;;;18.54;48.30;100271.47;5011869;28;20061;-77
2023/06/07 00:21:24;;;;;;;12.30;5.38;;;;;;;18.50;48.33;100260.22;5012675;28;20061;-77
2023/06/07 00:23:51;;;;;;;10.75;5.90;;;;;;;18.48;48.74;100270.16;5012762;28;20397;-77
2023/06/07 00:26:17;;;;;;;11.82;4.82;;;;;;;18.46;48.54;100266.75;5012814;28;20058;-77
2023/06/07 00:28:43;;;;;;;9.73;5.20;;;;;;;18.42;48.69;100265.31;5012910;28;20057;-77
2023/06/07 00:31:10;;;;;;;10.05;5.85;;;;;;;18.40;48.71;100259.28;5012882;28;20045;-77
2023/06/07 00:33:36;;;;;;;9.43;5.25;;;;;;;18.38;48.80;100266.56;5012563;28;20054;-77
2023/06/07 00:36:03;;;;;;;8.77;5.75;;;;;;;18.36;48.85;100267.53;5011308;28;20069;-78
2023/06/07 00:38:29;;;;;;;12.30;6.07;;;;;;;18.35;49.31;100267.66;5011026;28;20558;-78
2023/06/07 00:40:56;;;;;;;9.82;5.55;;;;;;;18.33;49.19;100272.28;5012590;28;20061;-77
2023/06/07 00:43:24;;;;;;;9.75;5.68;;;;;;;18.32;49.18;100274.06;5012559;28;20049;-78
2023/06/07 00:45:50;;;;;;;13.13;5.93;;;;;;;18.31;49.09;100266.19;5012535;28;20070;-77
2023/06/07 00:48:17;;;;;;;12.88;6.15;;;;;;;18.30;49.35;100273.38;5012203;28;20056;-78
2023/06/07 00:50:45;;;;;;;13.90;5.95;;;;;;;18.29;49.14;100274.34;5012437;28;20042;-77
2023/06/07 00:53:11;;;;;;;9.55;5.68;;;;;;;18.27;49.38;100268.28;5012029;28;20049;-78
2023/06/07 00:55:38;;;;;;;14.05;7.05;;;;;;;18.26;49.35;100269.25;5012280;28;20050;-77
2023/06/07 00:58:05;;;;;;;11.60;6.43;;;;;;;18.25;49.46;100267.56;5012283;28;20057;-78
2023/06/07 01:00:32;;;;;;;14.30;6.75;;;;;;;18.22;49.48;100268.69;5012156;28;20057;-78
2023/06/07 01:02:58;;;;;;;10.82;5.80;;;;;;;18.20;49.04;100259.09;5012124;28;20417;-78
2023/06/07 01:05:25;;;;;;;12.27;6.28;;;;;;;18.17;49.44;100259.34;5011944;28;20511;-78
2023/06/07 01:07:54;;;;;;;14.07;7.03;;;;;;;18.14;49.54;100264.94;5011842;28;20488;-77
2023/06/07 01:10:21;;;;;;;11.68;6.50;;;;;;;18.12;49.60;100264.22;5012183;28;20057;-77
2023/06/07 01:12:49;;;;;;;12.27;6.10;;;;;;;18.09;49.57;100268.81;5012011;28;20046;-77
2023/06/07 01:15:16;;;;;;;11.43;6.55;;;;;;;18.07;49.51;100260.06;5011586;28;20416;-77
2023/06/07 01:17:44;;;;;;;12.35;6.85;;;;;;;18.04;49.84;100270.97;5010481;28;20058;-77
2023/06/07 01:20:13;;;;;;;12.93;6.47;;;;;;;18.03;49.80;100265.75;5011630;28;20058;-77
2023/06/07 01:22:45;;;;;;;11.07;6.55;;;;;;;17.97;49.97;100272.41;5011738;28;20050;-77
2023/06/07 01:25:12;;;;;;;15.93;7.07;;;;;;;17.95;49.50;100277.03;5011595;28;20093;-77
2023/06/07 01:27:40;;;;;;;10.50;6.70;;;;;;;17.89;49.89;100265.06;5011776;28;20496;-78
2023/06/07 01:30:10;;;;;;;13.43;7.10;;;;;;;17.84;50.44;100267.25;5010031;28;20058;-77
2023/06/07 01:32:37;;;;;;;12.90;6.93;;;;;;;17.83;50.17;100268.22;5011200;28;20437;-78
2023/06/07 01:35:04;;;;;;;15.38;7.45;;;;;;;17.81;50.20;100262.16;5011420;28;20156;-77
2023/06/07 01:37:32;;;;;;;14.05;7.00;;;;;;;17.79;50.22;100264.94;5011258;28;20503;-77
2023/06/07 01:39:59;;;;;;;13.65;7.50;;;;;;;17.79;50.28;100259.59;5011633;28;20057;-78
2023/06/07 01:42:27;;;;;;;13.70;7.07;;;;;;;17.79;50.52;100262.28;5011490;28;20046;-77
2023/06/07 01:44:54;;;;;;;13.63;7.70;;;;;;;17.78;50.33;100260.59;5011305;28;20045;-77
2023/06/07 01:47:21;;;;;;;12.55;6.78;;;;;;;17.75;50.26;100258.16;5010093;28;20050;-77
2023/06/07 01:49:48;;;;;;;14.73;7.22;;;;;;;17.73;50.37;100261.91;5011568;28;20054;-77
2023/06/07 01:52:14;;;;;;;11.48;7.45;;;;;;;17.71;50.35;100249.56;5011885;28;20104;-78
2023/06/07 01:54:42;;;;;;;16.60;8.00;;;;;;;17.69;50.67;100254.16;5011295;28;20049;-76
2023/06/07 01:57:21;;;;;;;18.25;7.95;;;;;;;17.64;50.92;100258.19;5011190;28;20049;-77
2023/06/07 02:00:23;;;;;;;12.13;7.43;;;;;;;17.60;50.93;100254.91;5010989;28;20515;-77
2023/06/07 02:03:01;;;;;;;15.50;7.75;;;;;;;17.61;51.07;100253.09;5011010;28;20515;-78
2023/06/07 02:05:38;;;;;;;17.65;7.95;;;;;;;17.53;51.08;100251.03;5010734;28;20501;-77
2023/06/07 02:08:17;;;;;;;14.38;8.05;;;;;;;17.48;51.20;100259.38;5011242;28;20064;-77
2023/06/07 02:10:45;;;;;;;13.85;7.85;;;;;;;17.47;50.87;100244.38;5010827;28;20500;-77
2023/06/07 02:13:14;;;;;;;14.48;8.45;;;;;;;17.43;51.12;100245.59;5010878;28;20076;-77
2023/06/07 02:15:44;;;;;;;17.52;7.88;;;;;;;17.39;51.58;100244.13;5009421;28;20431;-77
2023/06/07 02:18:12;;;;;;;15.25;7.90;;;;;;;17.37;51.23;100249.56;5010744;28;20068;-77
2023/06/07 02:20:38;;;;;;;11.93;6.97;;;;;;;17.35;51.13;100248.84;5010668;28;20103;-77
2023/06/07 02:23:05;;;;;;;19.73;7.72;;;;;;;17.31;51.00;100250.88;5010773;28;20061;-77
2023/06/07 02:25:32;;;;;;;11.63;6.63;;;;;;;17.28;51.02;100256.47;5010643;28;20053;-77
2023/06/07 02:27:58;;;;;;;12.85;7.28;;;;;;;17.23;51.16;100250.63;5009355;28;20054;-77
2023/06/07 02:30:25;;;;;;;11.10;7.03;;;;;;;17.18;51.19;100252.81;5010653;28;20471;-77
2023/06/07 02:32:53;;;;;;;13.90;7.20;;;;;;;17.15;51.62;100253.03;5010522;28;20046;-77
2023/06/07 02:35:21;;;;;;;12.52;7.53;;;;;;;17.11;51.53;100254.22;5010265;28;20496;-77
2023/06/07 02:37:47;;;;;;;14.50;7.22;;;;;;;17.08;51.48;100246.50;5010545;28;20049;-77
2023/06/07 02:40:15;;;;;;;14.95;7.45;;;;;;;17.06;51.58;100243.97;5010654;28;20060;-78
2023/06/07 02:42:48;;;;;;;14.00;6.55;;;;;;;17.03;52.27;100242.34;5009664;28;20058;-77
2023/06/07 02:45:15;;;;;;;14.93;7.03;;;;;;;17.03;51.63;100249.47;5010364;28;20456;-77
2023/06/07 02:47:43;;;;;;;9.82;6.25;;;;;;;17.01;51.79;100248.75;5010398;28;20081;-78
2023/06/07 02:50:10;;;;;;;13.85;6.78;;;;;;;17.01;51.81;100248.75;5010423;28;20054;-77
2023/06/07 02:52:39;;;;;;;15.98;7.05;;;;;;;17.01;51.80;100252.25;5010452;28;20080;-77
2023/06/07 02:55:06;;;;;;;14.38;7.10;;;;;;;16.98;51.88;100252.50;5010564;28;20054;-78
2023/06/07 02:57:32;;;;;;;13.15;6.45;;;;;;;16.98;51.87;100256.97;5010216;28;20057;-77
2023/06/07 02:59:59;;;;;;;10.38;6.40;;;;;;;16.97;51.78;100245.47;5010490;28;20408;-77
2023/06/07 03:02:26;;;;;;;18.73;7.13;;;;;;;16.95;51.86;100242.09;5010144;28;20050;-77
2023/06/07 03:04:55;;;;;;;11.23;6.53;;;;;;;16.94;52.07;100251.03;5010289;28;20416;-77
2023/06/07 03:07:22;;;;;;;13.30;6.50;;;;;;;16.94;52.03;100251.03;5010242;28;20050;-77
2023/06/07 03:09:48;;;;;;;13.10;6.32;;;;;;;16.94;52.05;100245.72;5010383;28;20136;-77
2023/06/07 03:12:15;;;;;;;15.23;7.07;;;;;;;16.92;52.09;100245.84;5010142;28;20056;-77
2023/06/07 03:14:42;;;;;;;13.32;6.20;;;;;;;16.90;52.01;100238.94;5010028;28;20053;-77
2023/06/07 03:17:11;;;;;;;12.75;7.03;;;;;;;16.89;52.05;100242.53;5009788;28;20066;-77
2023/06/07 03:19:38;;;;;;;14.35;6.57;;;;;;;16.87;52.11;100244.50;5010376;28;20447;-77
2023/06/07 03:22:06;;;;;;;9.73;6.18;;;;;;;16.83;52.27;100243.03;5010173;28;20045;-77
2023/06/07 03:24:34;;;;;;;11.70;6.10;;;;;;;16.79;52.33;100243.25;5010026;28;20053;-77
2023/06/07 03:27:01;;;;;;;13.93;7.03;;;;;;;16.77;52.30;100239.00;5009739;28;20056;-77
2023/06/07 03:29:30;;;;;;;13.50;6.55;;;;;;;16.74;52.52;100247.25;5010124;28;20058;-77
2023/06/07 03:34:23;;;;;;;10.18;6.30;;;;;;;16.73;52.56;100253.50;4954890;22;20069;-81
2023/06/07 03:36:50;;;;;;;11.65;6.60;;;;;;;16.72;52.73;100258.00;5030636;28;20438;-80
2023/06/07 03:39:17;;;;;;;15.02;6.93;;;;;;;16.71;52.46;100261.59;5030679;28;20056;-80
2023/06/07 03:41:43;;;;;;;15.18;6.72;;;;;;;16.71;52.71;100252.78;5030760;28;20103;-80
2023/06/07 03:44:12;;;;;;;17.13;7.25;;;;;;;16.69;53.18;100266.19;5030748;28;20119;-80
2023/06/07 03:46:40;;;;;;;12.60;6.63;;;;;;;16.67;52.71;100266.28;5030354;28;20383;-80
2023/06/07 03:49:06;;;;;;;16.38;6.95;;;;;;;16.66;52.91;100266.41;5029631;28;20049;-81
2023/06/07 03:51:33;;;;;;;19.15;6.43;;;;;;;16.65;52.91;100273.53;5030745;28;20452;-80
2023/06/07 03:54:00;;;;;;;14.35;7.00;;;;;;;16.66;53.01;100266.41;5031952;28;20050;-80
2023/06/07 03:56:26;;;;;;;19.35;6.75;;;;;;;16.67;52.89;100260.13;5032774;28;20486;-80
2023/06/07 03:58:54;;;;;;;13.98;6.50;;;;;;;16.67;53.06;100257.47;5034039;28;20045;-80
2023/06/07 04:01:25;;;;;;;16.90;7.80;;;;;;;16.68;53.10;100261.84;5033997;28;20063;-81
2023/06/07 04:03:52;;;;;;;11.93;6.32;;;;;;;16.69;53.11;100260.88;5034270;28;20049;-80
2023/06/07 04:06:24;;;;;;;13.35;7.05;;;;;;;16.69;53.16;100263.53;5034017;28;20132;-79
2023/06/07 04:08:59;;;;;;;12.83;7.17;;;;;;;16.68;53.02;100267.97;5034012;28;20057;-80
2023/06/07 04:11:29;;;;;;;13.85;6.57;;;;;;;16.68;53.04;100272.47;5033997;28;20521;-80
2023/06/07 04:13:55;;;;;;;14.98;7.28;;;;;;;16.68;53.02;100264.50;5032626;28;20054;-79
2023/06/07 04:16:22;;;;;;;11.63;6.82;;;;;;;16.67;53.17;100270.75;5033848;28;20065;-80
2023/06/07 04:18:48;;;;;;;15.10;6.65;;;;;;;16.66;53.12;100267.25;5033740;28;20131;-80
2023/06/07 04:21:15;;;;;;;12.55;6.57;;;;;;;16.66;53.26;100259.28;5033799;28;20049;-80
2023/06/07 04:23:45;;;;;;;14.50;7.35;;;;;;;16.66;53.77;100269.06;5033720;28;20080;-80
2023/06/07 04:26:11;;;;;;;15.10;7.55;;;;;;;16.66;53.35;100264.59;5033417;28;20049;-80
2023/06/07 04:28:41;;;;;;;15.52;7.05;;;;;;;16.66;53.18;100266.41;5033600;28;20054;-80
2023/06/07 04:31:08;;;;;;;18.75;7.45;;;;;;;16.65;53.42;100262.06;5033814;28;20485;-80
2023/06/07 04:33:35;;;;;;;14.32;7.40;;;;;;;16.62;53.38;100257.81;5033874;28;20121;-80
2023/06/07 04:36:02;;;;;;;17.02;7.05;;;;;;;16.61;53.51;100272.09;5033538;28;20264;-80
2023/06/07 04:38:29;;;;;;;17.95;7.43;;;;;;;16.62;53.38;100270.25;5033447;28;20049;-80
2023/06/07 04:40:56;;;;;;;12.98;7.10;;;;;;;16.60;53.59;100274.84;5033310;28;20127;-80
2023/06/07 04:43:23;;;;;;;74.47;9.60;;;;;;;16.58;53.77;100280.28;5033598;28;20049;-80
2023/06/07 04:45:56;;;;;;;15.35;7.10;;;;;;;16.57;53.75;100275.94;5033426;28;20107;-79
2023/06/07 04:48:25;;;;;;;36.33;8.00;;;;;;;16.57;53.78;100277.72;5033294;28;20140;-80
2023/06/07 04:50:54;;;;;;;16.42;6.90;;;;;;;16.56;53.97;100279.53;5033599;28;20478;-79
2023/06/07 04:53:21;;;;;;;15.82;6.97;;;;;;;16.57;53.69;100277.72;5032978;28;20057;-80
2023/06/07 04:55:48;;;;;;;13.57;7.10;;;;;;;16.54;54.00;100284.97;5033497;28;20045;-80
2023/06/07 04:58:19;;;;;;;12.60;6.60;;;;;;;16.54;53.91;100284.13;5032994;28;20053;-80
2023/06/07 05:00:45;;;;;;;14.63;7.45;;;;;;;16.53;54.14;100280.59;5033263;28;20054;-79
2023/06/07 05:03:21;;;;;;;32.50;6.85;;;;;;;16.52;54.17;100284.22;5032988;28;20052;-80
2023/06/07 05:05:49;;;;;;;13.38;6.72;;;;;;;16.52;54.19;100278.91;5032172;28;20504;-80
2023/06/07 05:08:16;;;;;;;13.32;7.35;;;;;;;16.52;54.19;100268.28;5032563;28;20516;-79
2023/06/07 05:10:43;;;;;;;13.32;6.72;;;;;;;16.51;54.39;100274.56;5033190;28;20099;-80
2023/06/07 05:13:09;;;;;;;16.80;7.82;;;;;;;16.52;54.33;100278.91;5032772;28;20084;-80
2023/06/07 05:15:36;;;;;;;14.90;7.55;;;;;;;16.52;54.51;100275.41;5032710;28;20402;-80
2023/06/07 05:18:03;;;;;;;15.77;7.93;;;;;;;16.51;54.67;100274.56;5032646;28;20505;-79
2023/06/07 05:20:31;;;;;;;12.30;7.15;;;;;;;16.53;54.54;100277.13;5032584;28;20096;-80
2023/06/07 05:22:57;;;;;;;14.77;7.47;;;;;;;16.51;54.52;100287.84;5032728;28;20049;-78
2023/06/07 05:25:24;;;;;;;14.90;7.30;;;;;;;16.52;54.75;100280.75;5031243;28;20134;-79
2023/06/07 05:27:52;;;;;;;16.33;7.90;;;;;;;16.53;54.92;100285.09;5032353;28;20498;-77
2023/06/07 05:30:37;;;;;;;16.83;7.30;;;;;;;16.56;54.57;100289.31;5032664;28;20414;-77
2023/06/07 05:33:05;;;;;;;15.45;7.50;;;;;;;16.55;54.88;100304.41;5032334;28;20057;-78
2023/06/07 05:35:32;;;;;;;19.35;7.93;;;;;;;16.57;54.93;100296.31;5032334;28;20401;-78
2023/06/07 05:37:59;;;;;;;12.63;7.50;;;;;;;16.58;54.98;100287.38;5032456;28;20064;-78
2023/06/07 05:40:26;;;;;;;15.60;7.55;;;;;;;16.59;54.92;100284.63;5032228;28;20099;-78
2023/06/07 05:42:54;;;;;;;18.38;7.95;;;;;;;16.62;54.94;100283.53;5030774;28;20041;-78
2023/06/07 05:45:21;;;;;;;25.13;7.47;;;;;;;16.63;54.85;100279.94;5030528;28;20584;-77
2023/06/07 05:47:48;;;;;;;16.45;7.05;;;;;;;16.65;55.20;100284.19;5030739;28;20049;-78
2023/06/07 05:50:15;;;;;;;14.10;7.22;;;;;;;16.68;55.07;100283.09;5030795;28;20493;-77
2023/06/07 05:52:41;;;;;;;17.15;8.25;;;;;;;16.70;55.01;100286.47;5032074;28;20049;-78
2023/06/07 05:55:08;;;;;;;14.18;7.18;;;;;;;16.73;55.23;100280.94;5031804;28;20099;-77
2023/06/07 05:57:35;;;;;;;16.35;7.38;;;;;;;16.76;55.30;100296.66;5030759;28;20136;-78
2023/06/07 06:00:10;;;;;;;17.15;7.32;;;;;;;16.79;55.12;100290.28;5031954;28;20092;-78
2023/06/07 06:02:37;;;;;;;15.57;7.75;;;;;;;16.84;55.20;100297.88;5030593;28;20099;-78
2023/06/07 06:05:07;;;;;;;14.73;7.93;;;;;;;16.86;55.49;100302.13;5031758;28;20050;-78
2023/06/07 06:07:35;;;;;;;19.83;7.68;;;;;;;16.93;55.46;100303.38;5031697;28;20057;-78
2023/06/07 06:10:02;;;;;;;16.10;7.63;;;;;;;16.98;55.46;100300.38;5031408;28;20057;-78
2023/06/07 06:12:30;;;;;;;14.27;7.30;;;;;;;17.05;55.46;100306.09;5031154;28;20060;-78
2023/06/07 06:14:57;;;;;;;18.17;8.18;;;;;;;17.11;55.34;100302.13;5031795;28;20042;-78
2023/06/07 06:17:23;;;;;;;14.32;7.43;;;;;;;17.16;55.55;100292.00;5031154;28;20045;-78
2023/06/07 06:19:50;;;;;;;13.48;7.07;;;;;;;17.23;55.74;100306.50;5031855;28;20041;-78
2023/06/07 06:22:17;;;;;;;18.17;7.95;;;;;;;17.31;55.56;100309.44;5031648;28;20128;-78
2023/06/07 06:24:44;;;;;;;12.88;7.72;;;;;;;17.40;55.24;100307.88;5031628;28;20041;-78
2023/06/07 06:27:11;;;;;;;16.00;7.32;;;;;;;17.48;55.60;100301.97;5030033;28;20129;-79
2023/06/07 06:29:41;;;;;;;16.35;8.02;;;;;;;17.57;55.41;100305.72;5031660;28;20050;-79
2023/06/07 06:32:08;;;;;;;15.73;7.82;;;;;;;17.66;54.94;100314.78;5031677;28;20053;-79
2023/06/07 06:34:34;;;;;;;16.05;7.70;;;;;;;17.73;54.80;100321.34;5031259;28;20057;-79
2023/06/07 06:37:04;;;;;;;19.95;7.90;;;;;;;17.80;54.75;100324.38;5031549;28;20511;-79
2023/06/07 06:39:31;;;;;;;15.23;8.05;;;;;;;17.84;54.73;100329.31;5031327;28;20148;-80
2023/06/07 06:41:58;;;;;;;14.50;6.85;;;;;;;17.87;54.34;100327.41;5031514;28;20049;-79
2023/06/07 06:44:25;;;;;;;21.20;7.80;;;;;;;17.88;54.30;100323.75;5031744;28;20148;-79
2023/06/07 06:46:51;;;;;;;14.52;7.68;;;;;;;17.90;54.49;100329.81;5031016;28;20500;-79
2023/06/07 06:49:18;;;;;;;15.23;7.82;;;;;;;17.92;54.29;100334.06;5031350;28;20053;-79
2023/06/07 06:51:47;;;;;;;15.63;7.90;;;;;;;17.95;54.32;100340.97;5031294;28;20061;-78
2023/06/07 06:54:14;;;;;;;15.38;7.25;;;;;;;17.98;54.03;100330.91;5031189;28;20057;-79
2023/06/07 06:56:41;;;;;;;10.88;6.65;;;;;;;18.00;53.92;100335.25;5031055;28;20061;-79
2023/06/07 06:59:07;;;;;;;19.00;7.85;;;;;;;18.01;53.87;100328.97;5031170;28;20041;-78
2023/06/07 07:01:47;;;;;;;13.95;8.00;;;;;;;17.97;54.18;100331.88;5031247;28;20050;-79
2023/06/07 07:04:15;;;;;;;16.05;8.10;;;;;;;18.01;53.73;100329.81;5031444;28;20046;-78
2023/06/07 07:06:42;;;;;;;17.15;7.75;;;;;;;18.02;53.92;100326.16;5030838;28;20046;-79
2023/06/07 07:09:10;;;;;;;17.50;7.70;;;;;;;18.02;53.98;100333.31;5030973;28;20445;-79
2023/06/07 07:11:37;;;;;;;12.68;7.07;;;;;;;18.01;53.84;100324.47;5031031;28;20108;-80
2023/06/07 07:14:04;;;;;;;13.07;7.88;;;;;;;18.02;54.13;100330.66;5030868;28;20050;-78
2023/06/07 07:16:31;;;;;;;12.30;7.45;;;;;;;18.04;54.15;100329.56;5030818;28;20144;-78
2023/06/07 07:18:58;;;;;;;15.70;8.45;;;;;;;18.07;54.25;100324.00;5029643;28;20565;-79
2023/06/07 07:21:26;;;;;;;17.92;8.32;;;;;;;18.12;54.19;100330.81;5030735;28;20057;-79
2023/06/07 07:23:53;;;;;;;18.13;8.32;;;;;;;18.17;54.06;100334.78;5029465;28;20053;-78
2023/06/07 07:26:20;;;;;;;16.10;7.50;;;;;;;18.22;54.02;100334.44;5030658;28;20616;-79
2023/06/07 07:28:47;;;;;;;17.20;8.35;;;;;;;18.27;53.87;100334.06;5031877;28;20114;-79
2023/06/07 07:31:14;;;;;;;14.40;7.25;;;;;;;18.31;53.93;100347.00;5033532;28;20055;-79
2023/06/07 07:33:42;;;;;;;14.50;7.93;;;;;;;18.36;54.18;100334.16;5033281;28;20103;-79
2023/06/07 07:36:08;;;;;;;17.25;8.52;;;;;;;18.44;53.81;100341.53;5034376;28;20481;-79
2023/06/07 07:38:37;;;;;;;15.07;7.80;;;;;;;18.51;54.05;100341.91;5034360;28;20068;-78
2023/06/07 07:41:07;;;;;;;19.13;8.32;;;;;;;18.60;54.35;100340.28;5034638;28;20183;-79
2023/06/07 07:43:33;;;;;;;15.40;7.55;;;;;;;18.70;53.88;100337.72;5034586;28;20045;-78
2023/06/07 07:46:03;;;;;;;15.18;8.18;;;;;;;18.81;54.13;100348.34;5034599;28;20053;-78
2023/06/07 07:48:30;;;;;;;14.30;7.95;;;;;;;18.91;53.99;100348.41;5034981;28;20538;-77
2023/06/07 07:50:57;;;;;;;17.77;8.05;;;;;;;19.00;53.87;100341.47;5033396;28;20050;-78
2023/06/07 07:53:23;;;;;;;15.43;7.13;;;;;;;19.11;53.87;100341.44;5033165;28;20061;-78
2023/06/07 07:55:50;;;;;;;17.33;7.60;;;;;;;19.23;53.75;100341.41;5034254;28;20053;-78
2023/06/07 07:58:17;;;;;;;15.38;7.18;;;;;;;19.36;53.38;100333.22;5034016;28;20049;-79
2023/06/07 08:00:44;;;;;;;14.15;7.40;;;;;;;19.49;53.14;100347.19;5034210;28;20096;-79
2023/06/07 08:03:11;;;;;;;17.75;8.10;;;;;;;19.61;52.86;100349.78;5034409;28;20076;-79
2023/06/07 08:05:37;;;;;;;15.20;7.32;;;;;;;19.74;52.58;100357.59;5034086;28;20535;-79
2023/06/07 08:08:05;;;;;;;14.07;6.68;;;;;;;19.83;52.40;100361.28;5033945;28;20060;-79
2023/06/07 08:10:31;;;;;;;15.90;7.40;;;;;;;19.90;52.45;100359.78;5034108;28;20076;-79
2023/06/07 08:12:58;;;;;;;14.70;7.75;;;;;;;19.97;52.02;100346.72;5033920;28;20099;-79
2023/06/07 08:15:25;;;;;;;16.23;7.45;;;;;;;20.01;51.91;100348.19;5033634;28;20493;-79
2023/06/07 08:17:51;;;;;;;15.00;7.32;;;;;;;20.05;51.95;100344.25;5034020;28;20050;-78
2023/06/07 08:20:18;;;;;;;12.90;6.78;;;;;;;20.10;51.82;100347.38;5032680;28;20079;-79
2023/06/07 08:22:45;;;;;;;16.80;7.10;;;;;;;20.14;52.06;100346.09;5033640;28;20755;-79
2023/06/07 08:25:12;;;;;;;14.65;6.75;;;;;;;20.20;52.11;100343.88;5033578;28;20509;-78
2023/06/07 08:27:39;;;;;;;15.50;7.55;;;;;;;20.24;51.92;100342.63;5033754;28;20092;-79
2023/06/07 08:30:07;;;;;;;15.70;7.47;;;;;;;20.29;51.55;100343.91;5033707;28;20056;-79
2023/06/07 08:32:34;;;;;;;15.45;7.05;;;;;;;20.34;51.23;100343.50;5033471;28;20068;-79
2023/06/07 08:35:01;;;;;;;15.48;7.15;;;;;;;20.38;51.31;100341.41;5032094;28;20490;-79
2023/06/07 08:37:27;;;;;;;13.57;6.82;;;;;;;20.41;51.19;100352.66;5033463;28;20049;-79
2023/06/07 08:39:54;;;;;;;18.38;7.03;;;;;;;20.43;51.35;100352.53;5032612;28;20045;-79
2023/06/07 08:42:21;;;;;;;13.85;7.05;;;;;;;20.48;51.79;100344.91;5033035;28;20107;-79
2023/06/07 08:44:48;;;;;;;21.67;8.45;;;;;;;20.55;52.00;100350.56;5031947;28;20053;-79
2023/06/07 08:47:16;;;;;;;14.63;6.88;;;;;;;20.63;52.03;100355.25;5033297;28;20107;-79
2023/06/07 08:49:46;;;;;;;13.55;6.60;;;;;;;20.73;51.72;100349.88;5033264;28;20049;-79
2023/06/07 08:52:13;;;;;;;14.48;6.63;;;;;;;20.86;51.66;100349.63;5033448;28;20104;-78
2023/06/07 08:54:43;;;;;;;14.20;6.28;;;;;;;20.95;51.02;100349.66;5033021;28;20096;-79
2023/06/07 08:57:15;;;;;;;16.88;7.50;;;;;;;21.04;50.75;100353.31;5032914;28;20057;-79
2023/06/07 08:59:48;;;;;;;15.23;7.80;;;;;;;21.13;50.61;100359.66;5031872;28;20057;-79
2023/06/07 09:02:16;;;;;;;13.15;6.90;;;;;;;21.20;50.42;100351.91;5033210;28;20401;-78
2023/06/07 09:04:43;;;;;;;15.95;7.10;;;;;;;21.26;50.41;100353.16;5033053;28;20466;-79
2023/06/07 09:07:10;;;;;;;12.65;5.97;;;;;;;21.30;50.62;100346.53;5032966;28;20053;-79
2023/06/07 09:09:39;;;;;;;13.95;6.63;;;;;;;21.32;50.32;100339.19;5032780;28;20132;-80
2023/06/07 09:12:06;;;;;;;11.52;6.82;;;;;;;21.37;50.41;100339.59;5033066;28;20085;-79
2023/06/07 09:14:34;;;;;;;13.60;6.47;;;;;;;21.40;50.29;100347.34;5032918;28;20139;-78
2023/06/07 09:17:01;;;;;;;16.42;6.80;;;;;;;21.44;50.02;100346.06;5032434;28;20478;-78
2023/06/07 09:19:39;;;;;;;13.57;6.05;;;;;;;21.42;50.21;100349.91;5032643;28;20057;-78
2023/06/07 09:22:13;;;;;;;13.85;6.47;;;;;;;21.44;49.94;100350.56;5032654;28;20054;-79
2023/06/07 09:24:41;;;;;;;13.10;6.78;;;;;;;21.42;49.84;100349.91;5032526;28;20056;-79
2023/06/07 09:27:09;;;;;;;15.18;6.60;;;;;;;21.40;50.07;100351.84;5032373;28;20052;-79
2023/06/07 09:29:41;;;;;;;11.80;6.30;;;;;;;21.33;50.57;100346.22;5032619;28;20049;-78
2023/06/07 09:32:18;;;;;;;14.15;6.38;;;;;;;21.26;50.85;100345.13;5032467;28;20050;-78
2023/06/07 09:34:45;;;;;;;16.67;7.05;;;;;;;21.26;50.91;100339.78;5103476;22;20056;-79
2023/06/07 09:37:20;;;;;;;14.85;7.25;;;;;;;21.25;50.99;100349.63;5030509;28;20128;-79
2023/06/07 09:39:53;;;;;;;16.15;6.88;;;;;;;21.24;51.65;100347.09;5032477;28;20056;-78
2023/06/07 09:42:20;;;;;;;13.57;6.88;;;;;;;21.26;51.61;100332.56;5032255;28;20104;-78
2023/06/07 09:44:48;;;;;;;10.50;5.70;;;;;;;21.29;51.94;100331.44;5031731;28;20466;-78
2023/06/07 09:47:22;;;;;;;13.85;6.80;;;;;;;21.33;52.03;100336.38;5032167;28;20042;-77
2023/06/07 09:50:22;;;;;;;14.77;6.07;;;;;;;21.41;51.80;100341.00;5032114;28;20045;-78
2023/06/07 09:52:56;;;;;;;11.90;6.80;;;;;;;21.56;51.69;100340.53;5030558;28;20088;-77
2023/06/07 09:55:28;;;;;;;17.00;6.85;;;;;;;21.65;51.72;100342.38;5030514;28;20049;-77
2023/06/07 09:57:57;;;;;;;16.90;7.53;;;;;;;21.76;51.14;100341.38;5031739;28;20087;-78
2023/06/07 10:00:25;;;;;;;18.13;6.65;;;;;;;21.84;51.73;100338.81;5031892;28;20038;-77
2023/06/07 10:03:05;;;;;;;14.07;5.70;;;;;;;21.93;51.63;100342.44;5031794;28;20037;-77
2023/06/07 10:05:32;;;;;;;10.63;5.70;;;;;;;22.11;52.04;100344.31;5031662;28;20057;-76
2023/06/07 10:07:59;;;;;;;14.13;6.18;;;;;;;22.30;51.09;100350.56;5031563;28;20482;-77
2023/06/07 10:10:27;;;;;;;10.85;6.05;;;;;;;22.46;51.33;100348.06;5031418;28;20140;-77
2023/06/07 10:12:55;;;;;;;13.68;6.10;;;;;;;22.64;50.91;100342.75;5031689;28;20067;-78
2023/06/07 10:15:25;;;;;;;10.32;5.60;;;;;;;22.83;50.23;100343.59;5031592;28;20045;-77
2023/06/07 10:18:05;;;;;;;13.55;6.65;;;;;;;22.96;49.18;100345.91;5031519;28;20132;-78
2023/06/07 10:20:38;;;;;;;12.38;6.15;;;;;;;23.13;48.79;100346.03;5031440;28;20271;-77
2023/06/07 10:23:08;;;;;;;11.55;6.10;;;;;;;23.25;48.97;100347.47;5031407;28;20436;-76
2023/06/07 10:25:39;;;;;;;15.02;6.90;;;;;;;23.35;48.82;100346.56;5031380;28;20049;-77
2023/06/07 10:28:33;;;;;;;11.82;6.30;;;;;;;23.43;49.06;100349.31;5031450;28;20045;-78
2023/06/07 10:31:05;;;;;;;11.43;5.25;;;;;;;23.58;49.35;100336.13;5031159;28;20045;-77
2023/06/07 10:33:33;;;;;;;12.35;5.68;;;;;;;23.69;48.96;100337.69;5031136;28;20136;-77
2023/06/07 10:36:00;;;;;;;13.60;5.93;;;;;;;23.81;48.81;100333.75;5031312;28;20045;-77
2023/06/07 10:38:29;;;;;;;11.13;5.65;;;;;;;23.94;48.26;100332.47;5031203;28;20063;-77
2023/06/07 10:40:58;;;;;;;11.02;5.72;;;;;;;24.09;49.02;100327.31;5031138;28;20132;-76
2023/06/07 10:43:28;;;;;;;10.82;5.88;;;;;;;24.27;48.05;100332.63;5031098;28;20385;-78
2023/06/07 10:46:17;;;;;;;10.85;6.18;;;;;;;24.44;48.30;100325.41;5030904;28;20132;-78
2023/06/07 10:48:45;;;;;;;14.30;6.38;;;;;;;24.66;48.41;100323.09;5029941;28;20549;-78
2023/06/07 10:51:13;;;;;;;12.55;6.00;;;;;;;24.82;47.82;100327.66;5031146;28;20045;-77
2023/06/07 10:54:09;;;;;;;10.68;5.93;;;;;;;24.92;47.12;100322.13;5031179;28;20045;-78
2023/06/07 10:56:37;;;;;;;13.27;6.95;;;;;;;25.10;46.29;100324.66;5017583;28;20049;-78
2023/06/07 10:59:12;;;;;;;12.93;6.68;;;;;;;25.16;46.57;100314.22;5031339;28;20056;-77
2023/06/07 11:01:39;;;;;;;13.30;5.60;;;;;;;25.26;46.38;100320.25;5031245;28;20426;-77
2023/06/07 11:04:06;;;;;;;12.90;6.32;;;;;;;25.32;46.27;100316.91;5031491;28;20103;-78
2023/06/07 11:06:53;;;;;;;12.70;6.15;;;;;;;25.37;45.87;100308.28;5035397;28;20057;-78
2023/06/07 11:09:22;;;;;;;19.55;6.05;;;;;;;25.40;45.63;100313.34;5035212;28;20061;-77
2023/06/07 11:11:49;;;;;;;10.95;5.80;;;;;;;25.40;45.64;100309.78;5035009;28;20049;-78
2023/06/07 11:14:16;;;;;;;10.82;6.43;;;;;;;25.41;45.08;100308.81;5034969;28;20041;-77
2023/06/07 11:16:42;;;;;;;13.23;6.30;;;;;;;25.39;45.59;100317.06;5034637;28;20136;-78
2023/06/07 11:19:12;;;;;;;11.82;6.40;;;;;;;25.40;45.85;100315.19;5034755;28;20041;-77
2023/06/07 11:21:57;;;;;;;10.55;6.03;;;;;;;25.40;45.63;100315.19;5035165;28;20056;-77
2023/06/07 11:24:24;;;;;;;13.18;6.00;;;;;;;25.49;46.25;100306.91;5034725;28;20052;-77
2023/06/07 11:26:51;;;;;;;9.48;6.20;;;;;;;25.57;45.84;100307.94;5033360;28;20079;-77